sensor_id;sensor_type;location;lat;lon;timestamp;P1;durP1;ratioP1;P2;durP2;ratioP2
76131;SDS011;64877;50.994;13.650;2023-04-30T00:02:09;16.00;;;10.00;;
76131;SDS011;64877;50.994;13.650;2023-04-30T00:04:35;15.32;;;9.77;;
76131;SDS011;64877;50.994;13.650;2023-04-30T00:07:00;16.33;;;9.73;;
76131;SDS011;64877;50.994;13.650;2023-04-30T00:09:26;13.48;;;9.15;;
76131;SDS011;64877;50.994;13.650;2023-04-30T00:11:51;12.88;;;8.85;;
76131;SDS011;64877;50.994;13.650;2023-04-30T00:14:17;12.13;;;8.57;;
76131;SDS011;64877;50.994;13.650;2023-04-30T00:16:42;12.90;;;8.40;;
76131;SDS011;64877;50.994;13.650;2023-04-30T00:19:08;12.70;;;8.18;;
76131;SDS011;64877;50.994;13.650;2023-04-30T00:21:33;17.17;;;8.35;;
76131;SDS011;64877;50.994;13.650;2023-04-30T00:23:59;11.55;;;7.97;;
76131;SDS011;64877;50.994;13.650;2023-04-30T00:26:25;15.63;;;8.63;;
76131;SDS011;64877;50.994;13.650;2023-04-30T00:28:50;9.90;;;6.95;;
76131;SDS011;64877;50.994;13.650;2023-04-30T00:31:16;10.52;;;7.45;;
76131;SDS011;64877;50.994;13.650;2023-04-30T00:33:41;11.10;;;7.05;;
76131;SDS011;64877;50.994;13.650;2023-04-30T00:36:07;10.50;;;6.18;;
76131;SDS011;64877;50.994;13.650;2023-04-30T00:38:32;11.15;;;7.10;;
76131;SDS011;64877;50.994;13.650;2023-04-30T00:40:57;7.95;;;5.90;;
76131;SDS011;64877;50.994;13.650;2023-04-30T00:43:23;11.00;;;6.82;;
76131;SDS011;64877;50.994;13.650;2023-04-30T00:45:48;14.45;;;7.10;;
76131;SDS011;64877;50.994;13.650;2023-04-30T00:48:14;10.00;;;6.60;;
76131;SDS011;64877;50.994;13.650;2023-04-30T00:50:40;10.52;;;6.28;;
76131;SDS011;64877;50.994;13.650;2023-04-30T00:53:08;12.55;;;6.72;;
76131;SDS011;64877;50.994;13.650;2023-04-30T00:55:33;10.02;;;6.55;;
76131;SDS011;64877;50.994;13.650;2023-04-30T00:57:59;11.43;;;6.63;;
76131;SDS011;64877;50.994;13.650;2023-04-30T01:00:25;13.32;;;7.78;;
76131;SDS011;64877;50.994;13.650;2023-04-30T01:02:51;12.07;;;7.05;;
76131;SDS011;64877;50.994;13.650;2023-04-30T01:05:17;11.45;;;7.47;;
76131;SDS011;64877;50.994;13.650;2023-04-30T01:07:43;13.63;;;7.85;;
76131;SDS011;64877;50.994;13.650;2023-04-30T01:10:11;11.57;;;7.43;;
76131;SDS011;64877;50.994;13.650;2023-04-30T01:18:37;12.68;;;8.27;;
76131;SDS011;64877;50.994;13.650;2023-04-30T01:21:06;11.13;;;7.13;;
76131;SDS011;64877;50.994;13.650;2023-04-30T01:29:05;15.13;;;7.40;;
76131;SDS011;64877;50.994;13.650;2023-04-30T01:31:30;11.07;;;7.15;;
76131;SDS011;64877;50.994;13.650;2023-04-30T01:33:56;10.95;;;7.00;;
76131;SDS011;64877;50.994;13.650;2023-04-30T01:36:56;10.68;;;6.47;;
76131;SDS011;64877;50.994;13.650;2023-04-30T01:39:38;9.05;;;6.32;;
76131;SDS011;64877;50.994;13.650;2023-04-30T01:42:21;11.25;;;6.75;;
76131;SDS011;64877;50.994;13.650;2023-04-30T01:47:30;10.30;;;6.28;;
76131;SDS011;64877;50.994;13.650;2023-04-30T01:50:13;9.70;;;6.18;;
76131;SDS011;64877;50.994;13.650;2023-04-30T01:52:57;11.32;;;5.70;;
76131;SDS011;64877;50.994;13.650;2023-04-30T01:55:29;10.40;;;6.03;;
76131;SDS011;64877;50.994;13.650;2023-04-30T01:58:02;9.32;;;5.90;;
76131;SDS011;64877;50.994;13.650;2023-04-30T02:00:30;8.07;;;5.40;;
76131;SDS011;64877;50.994;13.650;2023-04-30T02:02:56;10.98;;;5.68;;
76131;SDS011;64877;50.994;13.650;2023-04-30T02:05:22;9.25;;;5.47;;
76131;SDS011;64877;50.994;13.650;2023-04-30T02:07:48;9.73;;;5.28;;
76131;SDS011;64877;50.994;13.650;2023-04-30T02:10:15;9.13;;;5.13;;
76131;SDS011;64877;50.994;13.650;2023-04-30T02:12:41;9.50;;;4.95;;
76131;SDS011;64877;50.994;13.650;2023-04-30T02:15:07;8.02;;;5.20;;
76131;SDS011;64877;50.994;13.650;2023-04-30T02:17:33;10.50;;;4.63;;
76131;SDS011;64877;50.994;13.650;2023-04-30T02:19:59;7.47;;;4.80;;
76131;SDS011;64877;50.994;13.650;2023-04-30T02:22:24;7.85;;;4.97;;
76131;SDS011;64877;50.994;13.650;2023-04-30T02:24:50;9.32;;;5.13;;
76131;SDS011;64877;50.994;13.650;2023-04-30T02:27:19;7.50;;;5.05;;
76131;SDS011;64877;50.994;13.650;2023-04-30T02:29:45;7.63;;;5.22;;
76131;SDS011;64877;50.994;13.650;2023-04-30T02:32:11;7.78;;;5.28;;
76131;SDS011;64877;50.994;13.650;2023-04-30T02:34:36;7.93;;;4.88;;
76131;SDS011;64877;50.994;13.650;2023-04-30T02:37:01;11.00;;;5.70;;
76131;SDS011;64877;50.994;13.650;2023-04-30T02:39:27;8.40;;;5.30;;
76131;SDS011;64877;50.994;13.650;2023-04-30T02:41:52;8.50;;;5.15;;
76131;SDS011;64877;50.994;13.650;2023-04-30T02:44:18;10.77;;;5.30;;
76131;SDS011;64877;50.994;13.650;2023-04-30T02:46:43;7.63;;;4.47;;
76131;SDS011;64877;50.994;13.650;2023-04-30T02:49:08;9.32;;;5.18;;
76131;SDS011;64877;50.994;13.650;2023-04-30T02:51:34;10.02;;;5.03;;
76131;SDS011;64877;50.994;13.650;2023-04-30T02:53:59;8.60;;;4.47;;
76131;SDS011;64877;50.994;13.650;2023-04-30T02:56:25;8.70;;;4.57;;
76131;SDS011;64877;50.994;13.650;2023-04-30T02:58:50;7.95;;;5.07;;
76131;SDS011;64877;50.994;13.650;2023-04-30T03:01:15;6.97;;;4.20;;
76131;SDS011;64877;50.994;13.650;2023-04-30T03:03:41;7.70;;;4.38;;
76131;SDS011;64877;50.994;13.650;2023-04-30T03:06:06;8.13;;;4.13;;
76131;SDS011;64877;50.994;13.650;2023-04-30T03:08:32;8.93;;;4.57;;
76131;SDS011;64877;50.994;13.650;2023-04-30T03:10:57;6.47;;;4.18;;
76131;SDS011;64877;50.994;13.650;2023-04-30T03:13:22;10.85;;;4.15;;
76131;SDS011;64877;50.994;13.650;2023-04-30T03:15:57;6.60;;;3.60;;
76131;SDS011;64877;50.994;13.650;2023-04-30T03:18:23;5.65;;;3.80;;
76131;SDS011;64877;50.994;13.650;2023-04-30T03:20:49;6.18;;;4.00;;
76131;SDS011;64877;50.994;13.650;2023-04-30T03:23:14;9.73;;;3.67;;
76131;SDS011;64877;50.994;13.650;2023-04-30T03:25:40;6.30;;;3.78;;
76131;SDS011;64877;50.994;13.650;2023-04-30T03:28:05;10.80;;;4.25;;
76131;SDS011;64877;50.994;13.650;2023-04-30T03:30:30;7.60;;;3.70;;
76131;SDS011;64877;50.994;13.650;2023-04-30T03:32:56;6.45;;;3.58;;
76131;SDS011;64877;50.994;13.650;2023-04-30T03:35:21;6.15;;;3.78;;
76131;SDS011;64877;50.994;13.650;2023-04-30T03:37:47;6.75;;;4.05;;
76131;SDS011;64877;50.994;13.650;2023-04-30T03:40:12;6.35;;;3.78;;
76131;SDS011;64877;50.994;13.650;2023-04-30T03:42:37;6.22;;;3.65;;
76131;SDS011;64877;50.994;13.650;2023-04-30T03:45:03;6.95;;;3.53;;
76131;SDS011;64877;50.994;13.650;2023-04-30T03:47:28;7.88;;;3.70;;
76131;SDS011;64877;50.994;13.650;2023-04-30T03:49:54;8.32;;;3.63;;
76131;SDS011;64877;50.994;13.650;2023-04-30T03:52:20;6.05;;;3.58;;
76131;SDS011;64877;50.994;13.650;2023-04-30T03:54:46;11.15;;;4.10;;
76131;SDS011;64877;50.994;13.650;2023-04-30T03:57:11;7.00;;;3.92;;
76131;SDS011;64877;50.994;13.650;2023-04-30T03:59:38;6.13;;;3.90;;
76131;SDS011;64877;50.994;13.650;2023-04-30T04:02:04;9.50;;;3.70;;
76131;SDS011;64877;50.994;13.650;2023-04-30T04:04:30;7.70;;;4.00;;
76131;SDS011;64877;50.994;13.650;2023-04-30T04:06:56;6.53;;;3.63;;
76131;SDS011;64877;50.994;13.650;2023-04-30T04:09:21;5.70;;;3.90;;
76131;SDS011;64877;50.994;13.650;2023-04-30T04:11:47;5.72;;;3.63;;
76131;SDS011;64877;50.994;13.650;2023-04-30T04:14:12;7.53;;;3.85;;
76131;SDS011;64877;50.994;13.650;2023-04-30T04:16:38;7.20;;;4.13;;
76131;SDS011;64877;50.994;13.650;2023-04-30T04:19:03;5.75;;;3.80;;
76131;SDS011;64877;50.994;13.650;2023-04-30T04:21:28;6.85;;;4.13;;
76131;SDS011;64877;50.994;13.650;2023-04-30T04:23:55;7.18;;;3.38;;
76131;SDS011;64877;50.994;13.650;2023-04-30T04:26:20;5.88;;;3.20;;
76131;SDS011;64877;50.994;13.650;2023-04-30T04:28:49;5.88;;;3.67;;
76131;SDS011;64877;50.994;13.650;2023-04-30T04:31:15;7.30;;;4.60;;
76131;SDS011;64877;50.994;13.650;2023-04-30T04:33:40;5.97;;;3.42;;
76131;SDS011;64877;50.994;13.650;2023-04-30T04:36:05;5.80;;;3.35;;
76131;SDS011;64877;50.994;13.650;2023-04-30T04:38:31;4.75;;;3.40;;
76131;SDS011;64877;50.994;13.650;2023-04-30T04:40:56;6.05;;;3.17;;
76131;SDS011;64877;50.994;13.650;2023-04-30T04:43:23;9.30;;;3.92;;
76131;SDS011;64877;50.994;13.650;2023-04-30T04:45:48;5.15;;;3.58;;
76131;SDS011;64877;50.994;13.650;2023-04-30T04:48:14;8.52;;;3.92;;
76131;SDS011;64877;50.994;13.650;2023-04-30T04:50:39;7.20;;;3.83;;
76131;SDS011;64877;50.994;13.650;2023-04-30T04:53:05;6.78;;;3.90;;
76131;SDS011;64877;50.994;13.650;2023-04-30T04:55:30;8.25;;;4.15;;
76131;SDS011;64877;50.994;13.650;2023-04-30T04:57:56;5.78;;;3.95;;
76131;SDS011;64877;50.994;13.650;2023-04-30T05:00:21;8.73;;;4.10;;
76131;SDS011;64877;50.994;13.650;2023-04-30T05:02:47;10.80;;;3.55;;
76131;SDS011;64877;50.994;13.650;2023-04-30T05:05:12;9.48;;;3.17;;
76131;SDS011;64877;50.994;13.650;2023-04-30T05:07:37;5.65;;;3.10;;
76131;SDS011;64877;50.994;13.650;2023-04-30T05:10:03;6.13;;;3.25;;
76131;SDS011;64877;50.994;13.650;2023-04-30T05:12:29;6.20;;;3.22;;
76131;SDS011;64877;50.994;13.650;2023-04-30T05:14:54;6.63;;;3.33;;
76131;SDS011;64877;50.994;13.650;2023-04-30T05:17:20;4.78;;;2.97;;
76131;SDS011;64877;50.994;13.650;2023-04-30T05:19:45;7.53;;;2.92;;
76131;SDS011;64877;50.994;13.650;2023-04-30T05:22:12;5.63;;;2.72;;
76131;SDS011;64877;50.994;13.650;2023-04-30T05:24:38;7.43;;;2.90;;
76131;SDS011;64877;50.994;13.650;2023-04-30T05:27:04;7.82;;;3.17;;
76131;SDS011;64877;50.994;13.650;2023-04-30T05:29:29;6.40;;;2.80;;
76131;SDS011;64877;50.994;13.650;2023-04-30T05:31:55;8.60;;;4.47;;
76131;SDS011;64877;50.994;13.650;2023-04-30T05:34:21;8.63;;;2.63;;
76131;SDS011;64877;50.994;13.650;2023-04-30T05:36:46;6.07;;;2.60;;
76131;SDS011;64877;50.994;13.650;2023-04-30T05:39:11;5.28;;;2.72;;
76131;SDS011;64877;50.994;13.650;2023-04-30T05:41:37;6.30;;;2.78;;
76131;SDS011;64877;50.994;13.650;2023-04-30T05:44:02;4.85;;;2.67;;
76131;SDS011;64877;50.994;13.650;2023-04-30T05:46:29;5.15;;;2.50;;
76131;SDS011;64877;50.994;13.650;2023-04-30T05:48:54;7.72;;;2.97;;
76131;SDS011;64877;50.994;13.650;2023-04-30T05:51:20;9.98;;;3.10;;
76131;SDS011;64877;50.994;13.650;2023-04-30T05:53:45;6.55;;;2.90;;
76131;SDS011;64877;50.994;13.650;2023-04-30T05:56:11;5.80;;;2.53;;
76131;SDS011;64877;50.994;13.650;2023-04-30T05:58:37;6.15;;;2.75;;
76131;SDS011;64877;50.994;13.650;2023-04-30T06:01:03;4.22;;;2.42;;
76131;SDS011;64877;50.994;13.650;2023-04-30T06:03:29;4.90;;;2.72;;
76131;SDS011;64877;50.994;13.650;2023-04-30T06:05:55;7.78;;;2.92;;
76131;SDS011;64877;50.994;13.650;2023-04-30T06:08:20;6.47;;;2.70;;
76131;SDS011;64877;50.994;13.650;2023-04-30T06:10:46;5.65;;;2.88;;
76131;SDS011;64877;50.994;13.650;2023-04-30T06:13:11;5.50;;;3.00;;
76131;SDS011;64877;50.994;13.650;2023-04-30T06:15:38;4.78;;;2.80;;
76131;SDS011;64877;50.994;13.650;2023-04-30T06:18:04;6.15;;;3.17;;
76131;SDS011;64877;50.994;13.650;2023-04-30T06:20:30;5.50;;;2.35;;
76131;SDS011;64877;50.994;13.650;2023-04-30T06:22:55;5.35;;;2.70;;
76131;SDS011;64877;50.994;13.650;2023-04-30T06:25:20;4.50;;;2.58;;
76131;SDS011;64877;50.994;13.650;2023-04-30T06:27:46;6.38;;;2.90;;
76131;SDS011;64877;50.994;13.650;2023-04-30T06:30:11;5.55;;;2.58;;
76131;SDS011;64877;50.994;13.650;2023-04-30T06:32:37;6.30;;;2.88;;
76131;SDS011;64877;50.994;13.650;2023-04-30T06:35:02;9.30;;;3.35;;
76131;SDS011;64877;50.994;13.650;2023-04-30T06:37:28;7.05;;;2.70;;
76131;SDS011;64877;50.994;13.650;2023-04-30T06:39:54;6.95;;;2.85;;
76131;SDS011;64877;50.994;13.650;2023-04-30T06:42:19;7.68;;;2.58;;
76131;SDS011;64877;50.994;13.650;2023-04-30T06:44:44;7.50;;;2.80;;
76131;SDS011;64877;50.994;13.650;2023-04-30T06:47:11;8.35;;;3.10;;
76131;SDS011;64877;50.994;13.650;2023-04-30T06:49:36;4.47;;;2.45;;
76131;SDS011;64877;50.994;13.650;2023-04-30T06:52:02;6.88;;;2.65;;
76131;SDS011;64877;50.994;13.650;2023-04-30T06:54:27;10.32;;;2.97;;
76131;SDS011;64877;50.994;13.650;2023-04-30T06:56:53;7.03;;;3.10;;
76131;SDS011;64877;50.994;13.650;2023-04-30T06:59:18;5.78;;;2.80;;
76131;SDS011;64877;50.994;13.650;2023-04-30T07:01:43;5.75;;;2.63;;
76131;SDS011;64877;50.994;13.650;2023-04-30T07:04:09;7.95;;;2.97;;
76131;SDS011;64877;50.994;13.650;2023-04-30T07:06:34;8.13;;;2.72;;
76131;SDS011;64877;50.994;13.650;2023-04-30T07:09:00;6.97;;;3.08;;
76131;SDS011;64877;50.994;13.650;2023-04-30T07:11:26;7.45;;;2.70;;
76131;SDS011;64877;50.994;13.650;2023-04-30T07:13:52;7.00;;;2.85;;
76131;SDS011;64877;50.994;13.650;2023-04-30T07:16:17;6.70;;;2.75;;
76131;SDS011;64877;50.994;13.650;2023-04-30T07:18:43;5.68;;;2.75;;
76131;SDS011;64877;50.994;13.650;2023-04-30T07:21:08;7.47;;;2.80;;
76131;SDS011;64877;50.994;13.650;2023-04-30T07:23:34;9.18;;;3.00;;
76131;SDS011;64877;50.994;13.650;2023-04-30T07:25:59;7.25;;;3.03;;
76131;SDS011;64877;50.994;13.650;2023-04-30T07:28:25;9.48;;;2.90;;
76131;SDS011;64877;50.994;13.650;2023-04-30T07:30:50;6.55;;;3.33;;
76131;SDS011;64877;50.994;13.650;2023-04-30T07:33:17;6.25;;;3.22;;
76131;SDS011;64877;50.994;13.650;2023-04-30T07:35:42;7.45;;;3.25;;
76131;SDS011;64877;50.994;13.650;2023-04-30T07:38:07;12.38;;;3.47;;
76131;SDS011;64877;50.994;13.650;2023-04-30T07:40:33;9.13;;;2.70;;
76131;SDS011;64877;50.994;13.650;2023-04-30T07:42:58;8.75;;;2.53;;
76131;SDS011;64877;50.994;13.650;2023-04-30T07:45:24;5.13;;;2.88;;
76131;SDS011;64877;50.994;13.650;2023-04-30T07:47:49;8.02;;;3.03;;
76131;SDS011;64877;50.994;13.650;2023-04-30T07:50:14;10.82;;;2.72;;
76131;SDS011;64877;50.994;13.650;2023-04-30T07:52:40;5.88;;;2.83;;
76131;SDS011;64877;50.994;13.650;2023-04-30T07:55:06;8.35;;;2.58;;
76131;SDS011;64877;50.994;13.650;2023-04-30T07:57:32;8.40;;;2.70;;
76131;SDS011;64877;50.994;13.650;2023-04-30T07:59:57;5.63;;;2.80;;
76131;SDS011;64877;50.994;13.650;2023-04-30T08:02:23;8.93;;;3.22;;
76131;SDS011;64877;50.994;13.650;2023-04-30T08:04:48;11.18;;;3.00;;
76131;SDS011;64877;50.994;13.650;2023-04-30T08:07:13;6.57;;;2.80;;
76131;SDS011;64877;50.994;13.650;2023-04-30T08:09:42;8.55;;;3.33;;
76131;SDS011;64877;50.994;13.650;2023-04-30T08:12:07;7.75;;;2.63;;
76131;SDS011;64877;50.994;13.650;2023-04-30T08:14:33;6.75;;;2.80;;
76131;SDS011;64877;50.994;13.650;2023-04-30T08:16:59;7.15;;;3.08;;
76131;SDS011;64877;50.994;13.650;2023-04-30T08:19:26;6.97;;;2.65;;
76131;SDS011;64877;50.994;13.650;2023-04-30T08:21:51;7.63;;;2.78;;
76131;SDS011;64877;50.994;13.650;2023-04-30T08:24:17;5.20;;;2.83;;
76131;SDS011;64877;50.994;13.650;2023-04-30T08:26:42;9.45;;;3.20;;
76131;SDS011;64877;50.994;13.650;2023-04-30T08:29:08;8.80;;;3.10;;
76131;SDS011;64877;50.994;13.650;2023-04-30T08:31:33;6.07;;;3.00;;
76131;SDS011;64877;50.994;13.650;2023-04-30T08:33:59;6.18;;;2.58;;
76131;SDS011;64877;50.994;13.650;2023-04-30T08:36:25;7.70;;;2.70;;
76131;SDS011;64877;50.994;13.650;2023-04-30T08:38:51;5.40;;;2.55;;
76131;SDS011;64877;50.994;13.650;2023-04-30T08:41:17;7.60;;;2.88;;
76131;SDS011;64877;50.994;13.650;2023-04-30T08:43:48;5.53;;;2.53;;
76131;SDS011;64877;50.994;13.650;2023-04-30T08:46:17;7.38;;;2.70;;
76131;SDS011;64877;50.994;13.650;2023-04-30T08:48:44;7.75;;;2.75;;
76131;SDS011;64877;50.994;13.650;2023-04-30T08:51:12;7.57;;;2.58;;
76131;SDS011;64877;50.994;13.650;2023-04-30T08:53:38;7.72;;;2.72;;
76131;SDS011;64877;50.994;13.650;2023-04-30T08:56:04;9.60;;;2.60;;
76131;SDS011;64877;50.994;13.650;2023-04-30T08:58:30;6.45;;;2.45;;
76131;SDS011;64877;50.994;13.650;2023-04-30T09:00:59;8.57;;;2.50;;
76131;SDS011;64877;50.994;13.650;2023-04-30T09:03:25;11.05;;;2.85;;
76131;SDS011;64877;50.994;13.650;2023-04-30T09:05:52;5.32;;;2.60;;
76131;SDS011;64877;50.994;13.650;2023-04-30T09:08:18;5.68;;;2.45;;
76131;SDS011;64877;50.994;13.650;2023-04-30T09:11:20;8.35;;;2.70;;
76131;SDS011;64877;50.994;13.650;2023-04-30T09:13:59;7.25;;;2.55;;
76131;SDS011;64877;50.994;13.650;2023-04-30T09:16:29;6.50;;;2.53;;
76131;SDS011;64877;50.994;13.650;2023-04-30T09:19:21;6.18;;;2.33;;
76131;SDS011;64877;50.994;13.650;2023-04-30T09:21:47;10.68;;;2.78;;
76131;SDS011;64877;50.994;13.650;2023-04-30T09:24:13;5.35;;;2.40;;
76131;SDS011;64877;50.994;13.650;2023-04-30T09:26:38;6.30;;;2.65;;
76131;SDS011;64877;50.994;13.650;2023-04-30T09:29:04;5.47;;;2.33;;
76131;SDS011;64877;50.994;13.650;2023-04-30T09:31:34;8.32;;;2.70;;
76131;SDS011;64877;50.994;13.650;2023-04-30T09:34:01;7.97;;;2.75;;
76131;SDS011;64877;50.994;13.650;2023-04-30T09:36:27;6.82;;;2.33;;
76131;SDS011;64877;50.994;13.650;2023-04-30T09:38:54;8.00;;;2.22;;
76131;SDS011;64877;50.994;13.650;2023-04-30T09:41:23;3.42;;;1.70;;
76131;SDS011;64877;50.994;13.650;2023-04-30T09:43:50;4.40;;;1.95;;
76131;SDS011;64877;50.994;13.650;2023-04-30T09:46:17;10.98;;;2.92;;
76131;SDS011;64877;50.994;13.650;2023-04-30T09:48:43;6.82;;;2.55;;
76131;SDS011;64877;50.994;13.650;2023-04-30T09:51:09;10.75;;;2.47;;
76131;SDS011;64877;50.994;13.650;2023-04-30T09:53:38;4.93;;;1.92;;
76131;SDS011;64877;50.994;13.650;2023-04-30T09:56:06;5.45;;;2.08;;
76131;SDS011;64877;50.994;13.650;2023-04-30T09:58:35;7.13;;;2.13;;
76131;SDS011;64877;50.994;13.650;2023-04-30T10:01:05;7.85;;;2.30;;
76131;SDS011;64877;50.994;13.650;2023-04-30T10:03:35;4.80;;;1.98;;
76131;SDS011;64877;50.994;13.650;2023-04-30T10:06:06;6.57;;;1.90;;
76131;SDS011;64877;50.994;13.650;2023-04-30T10:08:38;7.50;;;3.05;;
76131;SDS011;64877;50.994;13.650;2023-04-30T10:11:08;6.22;;;2.05;;
76131;SDS011;64877;50.994;13.650;2023-04-30T10:17:01;5.57;;;1.80;;
76131;SDS011;64877;50.994;13.650;2023-04-30T10:19:32;4.38;;;1.75;;
76131;SDS011;64877;50.994;13.650;2023-04-30T10:22:00;5.22;;;2.17;;
76131;SDS011;64877;50.994;13.650;2023-04-30T10:24:26;6.60;;;1.90;;
76131;SDS011;64877;50.994;13.650;2023-04-30T10:26:52;5.32;;;1.90;;
76131;SDS011;64877;50.994;13.650;2023-04-30T10:29:18;4.78;;;2.38;;
76131;SDS011;64877;50.994;13.650;2023-04-30T10:31:45;4.63;;;2.25;;
76131;SDS011;64877;50.994;13.650;2023-04-30T10:36:47;5.22;;;2.00;;
76131;SDS011;64877;50.994;13.650;2023-04-30T10:39:21;4.05;;;1.67;;
76131;SDS011;64877;50.994;13.650;2023-04-30T10:41:51;6.75;;;2.15;;
76131;SDS011;64877;50.994;13.650;2023-04-30T10:44:26;7.50;;;2.60;;
76131;SDS011;64877;50.994;13.650;2023-04-30T10:46:57;5.82;;;2.28;;
76131;SDS011;64877;50.994;13.650;2023-04-30T10:49:24;4.72;;;2.20;;
76131;SDS011;64877;50.994;13.650;2023-04-30T10:51:51;5.53;;;2.47;;
76131;SDS011;64877;50.994;13.650;2023-04-30T10:57:13;7.28;;;1.90;;
76131;SDS011;64877;50.994;13.650;2023-04-30T11:00:17;5.35;;;2.00;;
76131;SDS011;64877;50.994;13.650;2023-04-30T11:02:40;5.82;;;2.08;;
76131;SDS011;64877;50.994;13.650;2023-04-30T11:05:09;5.18;;;1.85;;
76131;SDS011;64877;50.994;13.650;2023-04-30T11:07:36;5.45;;;1.98;;
76131;SDS011;64877;50.994;13.650;2023-04-30T11:10:10;3.45;;;1.65;;
76131;SDS011;64877;50.994;13.650;2023-04-30T11:15:05;4.70;;;1.52;;
76131;SDS011;64877;50.994;13.650;2023-04-30T11:17:36;4.75;;;1.65;;
76131;SDS011;64877;50.994;13.650;2023-04-30T11:20:02;4.25;;;1.90;;
76131;SDS011;64877;50.994;13.650;2023-04-30T11:22:28;5.70;;;1.92;;
76131;SDS011;64877;50.994;13.650;2023-04-30T11:30:00;6.55;;;2.33;;
76131;SDS011;64877;50.994;13.650;2023-04-30T11:32:33;6.47;;;2.03;;
76131;SDS011;64877;50.994;13.650;2023-04-30T11:35:01;7.10;;;2.35;;
76131;SDS011;64877;50.994;13.650;2023-04-30T11:40:01;3.63;;;1.77;;
76131;SDS011;64877;50.994;13.650;2023-04-30T11:45:09;5.75;;;2.42;;
76131;SDS011;64877;50.994;13.650;2023-04-30T11:47:40;6.05;;;2.28;;
76131;SDS011;64877;50.994;13.650;2023-04-30T11:50:13;6.38;;;1.83;;
76131;SDS011;64877;50.994;13.650;2023-04-30T11:52:40;3.50;;;1.73;;
76131;SDS011;64877;50.994;13.650;2023-04-30T11:55:13;5.97;;;1.75;;
76131;SDS011;64877;50.994;13.650;2023-04-30T11:57:44;8.38;;;2.40;;
76131;SDS011;64877;50.994;13.650;2023-04-30T12:00:17;6.50;;;2.13;;
76131;SDS011;64877;50.994;13.650;2023-04-30T12:02:45;6.35;;;2.08;;
76131;SDS011;64877;50.994;13.650;2023-04-30T12:05:14;5.28;;;2.13;;
76131;SDS011;64877;50.994;13.650;2023-04-30T12:08:00;7.25;;;2.45;;
76131;SDS011;64877;50.994;13.650;2023-04-30T12:10:33;5.30;;;1.88;;
76131;SDS011;64877;50.994;13.650;2023-04-30T12:12:59;5.10;;;1.77;;
76131;SDS011;64877;50.994;13.650;2023-04-30T12:15:24;6.18;;;1.95;;
76131;SDS011;64877;50.994;13.650;2023-04-30T12:17:51;4.97;;;1.90;;
76131;SDS011;64877;50.994;13.650;2023-04-30T12:20:18;3.78;;;1.85;;
76131;SDS011;64877;50.994;13.650;2023-04-30T12:22:45;5.30;;;2.05;;
76131;SDS011;64877;50.994;13.650;2023-04-30T12:25:12;4.10;;;1.88;;
76131;SDS011;64877;50.994;13.650;2023-04-30T12:27:44;5.22;;;1.55;;
76131;SDS011;64877;50.994;13.650;2023-04-30T12:30:10;4.32;;;1.70;;
76131;SDS011;64877;50.994;13.650;2023-04-30T12:32:40;5.10;;;1.85;;
76131;SDS011;64877;50.994;13.650;2023-04-30T12:35:07;6.50;;;1.60;;
76131;SDS011;64877;50.994;13.650;2023-04-30T12:37:40;7.05;;;2.95;;
76131;SDS011;64877;50.994;13.650;2023-04-30T12:40:07;9.07;;;2.33;;
76131;SDS011;64877;50.994;13.650;2023-04-30T12:42:33;4.10;;;1.52;;
76131;SDS011;64877;50.994;13.650;2023-04-30T12:45:00;5.03;;;1.52;;
76131;SDS011;64877;50.994;13.650;2023-04-30T12:47:26;3.60;;;1.60;;
76131;SDS011;64877;50.994;13.650;2023-04-30T12:49:51;4.50;;;1.63;;
76131;SDS011;64877;50.994;13.650;2023-04-30T12:52:17;3.92;;;1.83;;
76131;SDS011;64877;50.994;13.650;2023-04-30T12:54:48;7.53;;;1.90;;
76131;SDS011;64877;50.994;13.650;2023-04-30T12:57:13;4.65;;;1.80;;
76131;SDS011;64877;50.994;13.650;2023-04-30T12:59:55;5.72;;;1.73;;
76131;SDS011;64877;50.994;13.650;2023-04-30T13:02:27;6.47;;;1.80;;
76131;SDS011;64877;50.994;13.650;2023-04-30T13:04:55;3.22;;;1.27;;
76131;SDS011;64877;50.994;13.650;2023-04-30T13:07:21;4.22;;;1.50;;
76131;SDS011;64877;50.994;13.650;2023-04-30T13:09:47;3.70;;;1.35;;
76131;SDS011;64877;50.994;13.650;2023-04-30T13:12:12;3.63;;;1.30;;
76131;SDS011;64877;50.994;13.650;2023-04-30T13:14:38;7.07;;;1.67;;
76131;SDS011;64877;50.994;13.650;2023-04-30T13:17:04;4.25;;;1.48;;
76131;SDS011;64877;50.994;13.650;2023-04-30T13:19:31;10.27;;;1.98;;
76131;SDS011;64877;50.994;13.650;2023-04-30T13:21:57;4.05;;;1.50;;
76131;SDS011;64877;50.994;13.650;2023-04-30T13:24:24;5.00;;;1.67;;
76131;SDS011;64877;50.994;13.650;2023-04-30T13:26:49;3.95;;;1.77;;
76131;SDS011;64877;50.994;13.650;2023-04-30T13:29:15;5.03;;;1.90;;
76131;SDS011;64877;50.994;13.650;2023-04-30T13:31:40;6.65;;;1.33;;
76131;SDS011;64877;50.994;13.650;2023-04-30T13:34:09;7.50;;;1.45;;
76131;SDS011;64877;50.994;13.650;2023-04-30T13:36:34;2.92;;;1.30;;
76131;SDS011;64877;50.994;13.650;2023-04-30T13:39:00;4.05;;;2.03;;
76131;SDS011;64877;50.994;13.650;2023-04-30T13:41:25;4.80;;;1.25;;
76131;SDS011;64877;50.994;13.650;2023-04-30T13:43:51;3.95;;;1.55;;
76131;SDS011;64877;50.994;13.650;2023-04-30T13:46:16;6.97;;;1.40;;
76131;SDS011;64877;50.994;13.650;2023-04-30T13:48:42;3.80;;;1.42;;
76131;SDS011;64877;50.994;13.650;2023-04-30T13:51:07;8.55;;;1.65;;
76131;SDS011;64877;50.994;13.650;2023-04-30T13:53:33;9.50;;;1.90;;
76131;SDS011;64877;50.994;13.650;2023-04-30T13:56:00;4.15;;;1.40;;
76131;SDS011;64877;50.994;13.650;2023-04-30T13:58:27;4.70;;;1.63;;
76131;SDS011;64877;50.994;13.650;2023-04-30T14:00:52;4.40;;;1.30;;
76131;SDS011;64877;50.994;13.650;2023-04-30T14:03:18;4.95;;;1.27;;
76131;SDS011;64877;50.994;13.650;2023-04-30T14:05:43;3.15;;;1.20;;
76131;SDS011;64877;50.994;13.650;2023-04-30T14:08:09;3.97;;;1.30;;
76131;SDS011;64877;50.994;13.650;2023-04-30T14:10:34;4.10;;;1.13;;
76131;SDS011;64877;50.994;13.650;2023-04-30T14:12:59;4.72;;;1.40;;
76131;SDS011;64877;50.994;13.650;2023-04-30T14:15:25;6.43;;;1.27;;
76131;SDS011;64877;50.994;13.650;2023-04-30T14:17:51;4.18;;;1.15;;
76131;SDS011;64877;50.994;13.650;2023-04-30T14:20:17;3.45;;;1.30;;
76131;SDS011;64877;50.994;13.650;2023-04-30T14:22:43;4.30;;;1.20;;
76131;SDS011;64877;50.994;13.650;2023-04-30T14:25:08;3.67;;;1.13;;
76131;SDS011;64877;50.994;13.650;2023-04-30T14:27:34;4.82;;;1.15;;
76131;SDS011;64877;50.994;13.650;2023-04-30T14:30:00;3.90;;;1.48;;
76131;SDS011;64877;50.994;13.650;2023-04-30T14:32:25;9.32;;;1.60;;
76131;SDS011;64877;50.994;13.650;2023-04-30T14:34:51;3.30;;;1.10;;
76131;SDS011;64877;50.994;13.650;2023-04-30T14:37:17;4.00;;;1.33;;
76131;SDS011;64877;50.994;13.650;2023-04-30T14:39:43;3.15;;;1.00;;
76131;SDS011;64877;50.994;13.650;2023-04-30T14:42:08;5.30;;;1.55;;
76131;SDS011;64877;50.994;13.650;2023-04-30T14:44:36;3.15;;;1.35;;
76131;SDS011;64877;50.994;13.650;2023-04-30T14:47:02;4.03;;;1.13;;
76131;SDS011;64877;50.994;13.650;2023-04-30T14:49:28;5.55;;;1.38;;
76131;SDS011;64877;50.994;13.650;2023-04-30T14:51:54;4.05;;;1.17;;
76131;SDS011;64877;50.994;13.650;2023-04-30T14:54:19;3.15;;;1.05;;
76131;SDS011;64877;50.994;13.650;2023-04-30T14:56:45;4.63;;;1.20;;
76131;SDS011;64877;50.994;13.650;2023-04-30T14:59:11;2.08;;;1.10;;
76131;SDS011;64877;50.994;13.650;2023-04-30T15:01:37;3.67;;;1.13;;
76131;SDS011;64877;50.994;13.650;2023-04-30T15:04:02;3.13;;;1.25;;
76131;SDS011;64877;50.994;13.650;2023-04-30T15:06:28;1.70;;;0.93;;
76131;SDS011;64877;50.994;13.650;2023-04-30T15:08:54;5.85;;;1.65;;